createdAt,value
2023-04-16T00:01:28.657Z,8.20
2023-04-16T00:03:57.206Z,8.10
2023-04-16T00:06:26.286Z,8.10
2023-04-16T00:08:54.622Z,8.10
2023-04-16T00:11:24.389Z,8.00
2023-04-16T00:13:52.699Z,8.00
2023-04-16T00:16:21.187Z,8.10
2023-04-16T00:18:49.577Z,8.10
2023-04-16T00:21:17.948Z,8.10
2023-04-16T00:23:46.557Z,8.10
2023-04-16T00:26:14.878Z,8.10
2023-04-16T00:28:44.867Z,8.10
2023-04-16T00:31:13.278Z,8.20
2023-04-16T00:33:41.591Z,8.20
2023-04-16T00:36:10.978Z,8.20
2023-04-16T00:38:39.329Z,8.20
2023-04-16T00:41:07.633Z,8.20
2023-04-16T00:43:35.960Z,8.20
2023-04-16T00:46:07.301Z,8.20
2023-04-16T00:48:37.036Z,8.30
2023-04-16T00:51:06.590Z,8.30
2023-04-16T00:53:35.659Z,8.30
2023-04-16T00:56:05.198Z,8.30
2023-04-16T00:58:34.531Z,8.30
2023-04-16T01:01:03.494Z,8.30
2023-04-16T01:03:39.625Z,8.30
2023-04-16T01:06:08.721Z,8.30
2023-04-16T01:08:37.244Z,8.30
2023-04-16T01:11:05.730Z,8.30
2023-04-16T01:13:34.705Z,8.30
2023-04-16T01:16:03.132Z,8.30
2023-04-16T01:18:32.979Z,8.30
2023-04-16T01:21:02.933Z,8.30
2023-04-16T01:23:31.531Z,8.30
2023-04-16T01:26:00.004Z,8.30
2023-04-16T01:28:28.286Z,8.40
2023-04-16T01:30:56.630Z,8.40
2023-04-16T01:33:25.038Z,8.40
2023-04-16T01:35:53.352Z,8.40
2023-04-16T01:38:23.016Z,8.40
2023-04-16T01:40:51.355Z,8.40
2023-04-16T01:43:19.672Z,8.50
2023-04-16T01:45:48.036Z,8.50
2023-04-16T01:48:19.823Z,8.50
2023-04-16T01:50:48.116Z,8.40
2023-04-16T01:53:16.461Z,8.40
2023-04-16T01:55:46.217Z,8.40
2023-04-16T01:58:16.807Z,8.30
2023-04-16T02:00:45.225Z,8.40
2023-04-16T02:03:13.798Z,8.40
2023-04-16T02:05:42.234Z,8.40
2023-04-16T02:08:10.624Z,8.30
2023-04-16T02:10:39.014Z,8.40
2023-04-16T02:13:08.659Z,8.40
2023-04-16T02:15:36.974Z,8.40
2023-04-16T02:18:05.571Z,8.40
2023-04-16T02:20:33.855Z,8.40
2023-04-16T02:23:04.227Z,8.40
2023-04-16T02:25:33.057Z,8.30
2023-04-16T02:28:01.424Z,8.30
2023-04-16T02:30:31.272Z,8.30
2023-04-16T02:32:59.710Z,8.30
2023-04-16T02:35:28.159Z,8.30
2023-04-16T02:37:56.489Z,8.30
2023-04-16T02:40:24.817Z,8.30
2023-04-16T02:42:53.149Z,8.30
2023-04-16T02:45:21.568Z,8.30
2023-04-16T02:47:52.822Z,8.30
2023-04-16T02:50:21.342Z,8.30
2023-04-16T02:52:49.892Z,8.30
2023-04-16T02:55:18.572Z,8.20
2023-04-16T02:57:46.844Z,8.30
2023-04-16T03:00:15.508Z,8.30
2023-04-16T03:02:43.948Z,8.30
2023-04-16T03:05:13.680Z,8.30
2023-04-16T03:07:41.984Z,8.30
2023-04-16T03:10:11.999Z,8.30
2023-04-16T04:02:25.413Z,8.30
2023-04-16T04:04:56.509Z,8.50
2023-04-16T04:07:24.973Z,8.50
2023-04-16T04:09:53.340Z,8.50
2023-04-16T04:12:21.787Z,8.50
2023-04-16T04:14:51.456Z,8.50
2023-04-16T04:17:19.811Z,8.50
2023-04-16T04:20:00.438Z,8.50
2023-04-16T04:22:29.911Z,8.50
2023-04-16T04:25:00.743Z,8.50
2023-04-16T04:27:29.015Z,8.50
2023-04-16T04:29:58.975Z,8.50
2023-04-16T04:32:27.353Z,8.50
2023-04-16T04:34:55.953Z,8.50
2023-04-16T04:37:24.331Z,8.50
2023-04-16T04:39:52.899Z,8.40
2023-04-16T04:42:22.190Z,8.40
2023-04-16T04:44:50.760Z,8.40
2023-04-16T04:47:20.657Z,8.30
2023-04-16T04:49:48.983Z,8.40
2023-04-16T04:52:20.653Z,8.30
2023-04-16T04:54:48.975Z,8.40
2023-04-16T04:57:17.335Z,8.40
2023-04-16T04:59:45.760Z,8.40
2023-04-16T05:02:16.757Z,8.40
2023-04-16T05:04:46.717Z,8.40
2023-04-16T05:07:15.125Z,8.40
2023-04-16T05:09:43.528Z,8.40
2023-04-16T05:12:11.900Z,8.40
2023-04-16T05:14:40.458Z,8.40
2023-04-16T05:17:10.888Z,8.40
2023-04-16T05:19:39.206Z,8.40
2023-04-16T05:22:08.887Z,8.40
2023-04-16T05:24:37.218Z,8.40
2023-04-16T05:27:05.699Z,8.50
2023-04-16T05:29:34.052Z,8.40
2023-04-16T05:32:02.406Z,8.40
2023-04-16T05:34:30.713Z,8.50
2023-04-16T05:36:59.051Z,8.50
2023-04-16T05:39:28.750Z,8.40
2023-04-16T05:41:57.061Z,8.40
2023-04-16T05:44:25.480Z,8.40
2023-04-16T05:46:53.832Z,8.40
2023-04-16T05:49:22.281Z,8.50
2023-04-16T05:51:51.086Z,8.40
2023-04-16T05:54:19.559Z,8.40
2023-04-16T05:56:49.323Z,8.50
2023-04-16T05:59:17.659Z,8.50
2023-04-16T06:01:46.404Z,8.50
2023-04-16T06:04:14.987Z,8.50
2023-04-16T06:06:43.391Z,8.50
2023-04-16T06:09:12.288Z,8.60
2023-04-16T06:11:40.864Z,8.60
2023-04-16T06:14:10.604Z,8.60
2023-04-16T06:16:38.905Z,8.60
2023-04-16T06:19:07.407Z,8.60
2023-04-16T06:21:35.909Z,8.60
2023-04-16T06:24:04.256Z,8.60
2023-04-16T06:26:32.617Z,8.70
2023-04-16T06:29:00.977Z,8.70
2023-04-16T06:31:31.345Z,8.70
2023-04-16T06:33:59.684Z,8.80
2023-04-16T06:36:29.150Z,8.80
2023-04-16T06:38:57.457Z,8.80
2023-04-16T06:41:26.810Z,8.80
2023-04-16T06:43:55.152Z,8.80
2023-04-16T06:46:23.607Z,8.80
2023-04-16T06:48:53.504Z,8.80
2023-04-16T06:51:21.806Z,8.80
2023-04-16T06:53:50.537Z,8.90
2023-04-16T06:56:18.907Z,9.10
2023-04-16T06:58:47.164Z,9.30
2023-04-16T07:01:15.839Z,9.40
2023-04-16T07:03:44.347Z,9.30
2023-04-16T07:06:14.198Z,9.30
2023-04-16T07:08:42.518Z,9.30
2023-04-16T07:11:10.989Z,9.30
2023-04-16T07:13:39.404Z,9.40
2023-04-16T07:16:08.064Z,9.70
2023-04-16T07:18:36.366Z,9.90
2023-04-16T07:21:07.008Z,10.00
2023-04-16T07:23:36.699Z,9.90
2023-04-16T07:26:05.017Z,9.90
2023-04-16T07:28:33.326Z,9.90
2023-04-16T07:31:01.763Z,9.80
2023-04-16T07:33:30.195Z,10.00
2023-04-16T07:36:01.071Z,10.00
2023-04-16T07:38:29.387Z,10.10
2023-04-16T07:40:59.147Z,10.20
2023-04-16T07:43:27.558Z,10.10
2023-04-16T07:45:57.562Z,9.80
2023-04-16T07:48:26.106Z,9.80
2023-04-16T07:50:54.517Z,9.90
2023-04-16T07:53:22.956Z,9.90
2023-04-16T07:55:51.301Z,9.90
2023-04-16T07:58:21.068Z,9.90
2023-04-16T08:00:51.003Z,9.80
2023-04-16T08:03:19.697Z,9.70
2023-04-16T08:05:48.099Z,9.60
2023-04-16T08:08:16.521Z,9.70
2023-04-16T08:10:44.817Z,9.70
2023-04-16T08:13:13.137Z,9.80
2023-04-16T08:15:42.874Z,10.00
2023-04-16T08:18:15.569Z,10.10
2023-04-16T08:20:44.141Z,10.20
2023-04-16T08:23:12.395Z,10.30
2023-04-16T08:28:09.368Z,10.70
2023-04-16T08:30:37.893Z,10.80
2023-04-16T08:33:07.720Z,10.90
2023-04-16T08:35:36.393Z,10.90
2023-04-16T08:38:05.125Z,10.70
2023-04-16T08:40:36.024Z,10.50
2023-04-16T08:43:06.570Z,10.50
2023-04-16T08:45:37.572Z,10.60
2023-04-16T08:48:08.282Z,10.60
2023-04-16T08:50:37.561Z,10.50
2023-04-16T08:53:07.693Z,10.60
2023-04-16T08:55:39.053Z,10.70
2023-04-16T08:58:13.726Z,10.60
2023-04-16T09:00:42.190Z,10.70
2023-04-16T09:03:12.199Z,10.70
2023-04-16T09:05:41.230Z,10.80
2023-04-16T09:08:10.145Z,10.80
2023-04-16T09:10:38.455Z,10.90
2023-04-16T09:13:08.394Z,10.90
2023-04-16T09:15:37.337Z,11.20
2023-04-16T09:20:36.243Z,11.20
2023-04-16T09:23:04.597Z,11.30
2023-04-16T09:25:35.242Z,11.30
2023-04-16T11:49:18.426Z,11.20
2023-04-16T11:51:48.700Z,11.40
2023-04-16T11:54:22.328Z,11.40
2023-04-16T11:56:52.215Z,11.50
2023-04-16T11:59:23.164Z,11.50
2023-04-16T12:01:53.308Z,11.50
2023-04-16T12:04:25.009Z,11.60
2023-04-16T12:07:10.250Z,11.70
2023-04-16T12:09:41.449Z,11.90
2023-04-16T12:30:08.288Z,12.20
2023-04-16T12:32:37.046Z,12.50
2023-04-16T12:35:06.217Z,12.70
2023-04-16T12:37:35.452Z,12.60
2023-04-16T12:40:09.391Z,12.50
2023-04-16T12:42:37.886Z,12.40
2023-04-16T12:45:07.145Z,12.20
2023-04-16T12:47:35.622Z,12.10
2023-04-16T12:50:03.982Z,12.10
2023-04-16T12:52:32.441Z,12.20
2023-04-16T12:55:01.410Z,12.10
2023-04-16T12:57:31.086Z,12.10
2023-04-16T13:00:00.011Z,12.10
2023-04-16T13:02:29.202Z,12.10
2023-04-16T13:04:57.769Z,12.00
2023-04-16T13:07:28.240Z,11.80
2023-04-16T13:09:56.628Z,11.60
2023-04-16T13:12:25.097Z,11.60
2023-04-16T13:14:54.772Z,11.80
2023-04-16T13:17:23.341Z,11.90
2023-04-16T13:19:51.655Z,12.20
2023-04-16T13:22:20.214Z,12.20
2023-04-16T13:24:48.571Z,12.30
2023-04-16T13:27:17.311Z,12.60
2023-04-16T13:29:45.805Z,12.80
2023-04-16T13:32:16.175Z,13.10
2023-04-16T13:34:44.566Z,13.00
2023-04-16T13:37:12.864Z,13.00
2023-04-16T13:39:41.678Z,13.20
2023-04-16T13:42:10.044Z,13.30
2023-04-16T13:44:38.581Z,13.30
2023-04-16T13:47:07.029Z,13.20
2023-04-16T13:49:36.739Z,13.20
2023-04-16T13:52:05.735Z,13.00
2023-04-16T13:54:34.331Z,12.90
2023-04-16T13:57:04.518Z,12.90
2023-04-16T13:59:36.794Z,12.70
2023-04-16T14:02:05.685Z,12.60
2023-04-16T14:04:34.068Z,12.80
2023-04-16T14:07:03.795Z,12.80
2023-04-16T14:09:32.139Z,12.60
2023-04-16T14:12:00.694Z,12.50
2023-04-16T14:14:29.038Z,12.30
2023-04-16T14:16:57.464Z,12.40
2023-04-16T14:19:25.979Z,12.40
2023-04-16T14:21:55.416Z,12.30
2023-04-16T14:24:25.760Z,12.30
2023-04-16T14:26:54.176Z,12.40
2023-04-16T14:29:22.582Z,12.40
2023-04-16T14:31:51.622Z,12.50
2023-04-16T14:34:20.206Z,12.60
2023-04-16T14:36:49.193Z,12.60
2023-04-16T14:39:17.621Z,12.90
2023-04-16T14:41:47.414Z,12.70
2023-04-16T14:44:15.774Z,12.60
2023-04-16T14:46:44.949Z,12.50
2023-04-16T14:49:14.391Z,12.50
2023-04-16T14:51:44.110Z,12.70
2023-04-16T14:54:12.536Z,12.70
2023-04-16T14:56:41.197Z,12.70
2023-04-16T14:59:11.202Z,12.60
2023-04-16T15:01:41.295Z,12.50
2023-04-16T15:04:10.102Z,12.40
2023-04-16T15:06:38.670Z,12.40
2023-04-16T15:09:07.545Z,12.50
2023-04-16T15:11:37.055Z,12.50
2023-04-16T15:14:05.619Z,12.60
2023-04-16T15:16:35.765Z,13.10
2023-04-16T15:19:05.379Z,13.20
2023-04-16T15:21:34.023Z,13.20
2023-04-16T15:24:02.641Z,13.00
2023-04-16T15:26:31.352Z,13.10
2023-04-16T15:28:59.718Z,13.20
2023-04-16T15:31:28.232Z,13.00
2023-04-16T15:33:59.596Z,13.10
2023-04-16T15:36:28.015Z,13.10
2023-04-16T15:38:56.383Z,12.80
2023-04-16T15:41:24.848Z,12.30
2023-04-16T15:43:53.224Z,12.30
2023-04-16T15:46:21.731Z,12.30
2023-04-16T15:48:50.108Z,12.40
2023-04-16T15:51:19.883Z,12.60
2023-04-16T15:53:49.972Z,12.80
2023-04-16T15:56:18.394Z,12.70
2023-04-16T15:58:46.994Z,12.80
2023-04-16T16:01:15.565Z,12.80
2023-04-16T16:03:46.456Z,12.70
2023-04-16T16:06:17.711Z,12.60
2023-04-16T16:08:48.533Z,12.50
2023-04-16T16:11:17.162Z,12.50
2023-04-16T16:13:45.575Z,12.40
2023-04-16T16:16:14.828Z,12.40
2023-04-16T16:18:43.260Z,12.30
2023-04-16T16:21:12.130Z,12.20
2023-04-16T16:23:40.817Z,12.00
2023-04-16T16:26:10.465Z,11.80
2023-04-16T16:28:38.864Z,11.80
2023-04-16T16:31:07.803Z,11.80
2023-04-16T16:33:37.378Z,11.90
2023-04-16T16:36:11.715Z,12.00
2023-04-16T16:38:41.344Z,12.20
2023-04-16T16:41:11.198Z,12.20
2023-04-16T16:43:39.741Z,12.20
2023-04-16T16:46:09.911Z,12.00
2023-04-16T16:48:38.320Z,11.80
2023-04-16T16:51:11.069Z,11.60
2023-04-16T16:53:42.690Z,11.60
2023-04-16T16:56:15.461Z,11.50
2023-04-16T16:58:43.926Z,11.50
2023-04-16T17:01:12.400Z,11.30
2023-04-16T17:03:41.872Z,11.30
2023-04-16T17:06:13.533Z,11.20
2023-04-16T17:08:44.362Z,11.20
2023-04-16T17:11:12.764Z,11.10
2023-04-16T17:13:42.576Z,11.10
2023-04-16T17:16:15.270Z,11.10
2023-04-16T17:46:11.325Z,11.10
2023-04-16T17:48:40.832Z,10.50
2023-04-16T17:51:12.851Z,10.50
2023-04-16T17:53:42.665Z,10.50
2023-04-16T17:56:11.269Z,10.50
2023-04-16T17:58:39.665Z,10.50
2023-04-16T18:01:10.813Z,10.40
2023-04-16T18:03:40.498Z,10.40
2023-04-16T18:06:09.019Z,10.30
2023-04-16T18:08:37.649Z,10.20
2023-04-16T18:11:10.122Z,10.20
2023-04-16T18:53:57.333Z,10.10
2023-04-16T18:56:26.077Z,9.70
2023-04-16T18:58:54.357Z,9.70
2023-04-16T19:01:22.888Z,9.70
2023-04-16T19:03:51.463Z,9.70
2023-04-16T19:06:19.844Z,9.70
2023-04-16T19:08:49.591Z,9.60
2023-04-16T19:11:18.006Z,9.60
2023-04-16T19:13:46.376Z,9.60
2023-04-16T19:16:14.807Z,9.60
2023-04-16T19:18:43.373Z,9.50
2023-04-16T19:21:11.995Z,9.50
2023-04-16T19:23:40.421Z,9.50
2023-04-16T19:26:10.232Z,9.60
2023-04-16T19:28:39.042Z,9.50
2023-04-16T19:31:07.573Z,9.40
2023-04-16T19:33:36.211Z,9.40
2023-04-16T19:36:04.620Z,9.40
2023-04-16T19:38:33.090Z,9.50
2023-04-16T19:41:01.600Z,9.50
2023-04-16T19:43:31.995Z,9.50
2023-04-16T19:46:00.399Z,9.40
2023-04-16T19:48:28.913Z,9.30
2023-04-16T19:50:57.604Z,9.30
2023-04-16T19:53:25.997Z,9.30
2023-04-16T19:55:54.451Z,9.30
2023-04-16T19:58:22.768Z,9.30
2023-04-16T20:00:52.572Z,9.30
2023-04-16T20:03:20.997Z,9.30
2023-04-16T20:05:50.607Z,9.30
2023-04-16T20:08:19.016Z,9.30
2023-04-16T20:10:47.740Z,9.30
2023-04-16T20:13:18.584Z,9.20
2023-04-16T20:15:47.993Z,9.20
2023-04-16T20:18:18.172Z,9.10
2023-04-16T20:20:47.181Z,9.10
2023-04-16T20:23:15.557Z,9.20
2023-04-16T20:25:44.176Z,9.10
2023-04-16T20:28:12.610Z,9.20
2023-04-16T20:30:41.345Z,9.20
2023-04-16T20:33:10.485Z,9.10
2023-04-16T20:35:40.228Z,9.10
2023-04-16T20:38:08.583Z,9.00
2023-04-16T20:40:38.832Z,9.00
2023-04-16T20:43:10.203Z,9.10
2023-04-16T20:45:40.965Z,9.00
2023-04-16T20:48:11.616Z,9.00
2023-04-16T20:50:41.511Z,9.10
2023-04-16T20:53:09.914Z,9.10
2023-04-16T20:55:38.304Z,9.10
2023-04-16T20:58:06.709Z,9.10
2023-04-16T21:00:35.187Z,9.00
2023-04-16T21:03:03.717Z,9.00
2023-04-16T21:05:33.990Z,8.90
2023-04-16T21:08:03.837Z,9.00
2023-04-16T21:10:32.287Z,9.00
2023-04-16T21:13:00.677Z,8.90
2023-04-16T21:15:29.174Z,9.00
2023-04-16T21:17:57.530Z,9.00
2023-04-16T21:20:25.883Z,9.00
2023-04-16T21:22:56.908Z,9.00
2023-04-16T21:25:27.043Z,8.90
2023-04-16T21:27:55.556Z,9.00
2023-04-16T21:30:23.907Z,9.00
2023-04-16T21:32:52.298Z,8.90
2023-04-16T21:35:20.749Z,8.90
2023-04-16T21:37:49.119Z,8.90
2023-04-16T21:40:17.770Z,8.90
2023-04-16T21:42:47.476Z,8.90
2023-04-16T21:45:16.049Z,9.00
2023-04-16T21:47:44.512Z,9.00
2023-04-16T21:50:13.757Z,9.00
2023-04-16T21:52:46.807Z,9.00
2023-04-16T21:55:15.291Z,9.00
2023-04-16T21:57:43.673Z,8.90
2023-04-16T22:00:14.696Z,8.80
2023-04-16T22:02:43.583Z,8.90
2023-04-16T22:05:12.683Z,8.90
2023-04-16T22:07:42.638Z,8.90
2023-04-16T22:10:13.547Z,8.90
2023-04-16T22:12:45.025Z,8.80
2023-04-16T22:15:15.622Z,8.80
2023-04-16T22:17:44.072Z,8.80
2023-04-16T22:20:15.759Z,8.80
2023-04-16T22:22:45.035Z,8.90
2023-04-16T22:25:13.450Z,8.80
2023-04-16T22:27:42.045Z,8.90
2023-04-16T22:30:11.320Z,8.90
2023-04-16T22:32:41.003Z,8.90
2023-04-16T22:35:10.296Z,8.90
2023-04-16T22:37:38.608Z,8.90
2023-04-16T22:40:09.810Z,8.80
2023-04-16T22:42:38.179Z,8.90
2023-04-16T22:47:35.819Z,8.90
2023-04-16T22:50:06.565Z,8.90
2023-04-16T23:04:59.462Z,8.90
2023-04-16T23:07:29.138Z,8.80
2023-04-16T23:09:57.794Z,8.80
2023-04-16T23:12:26.437Z,8.70
2023-04-16T23:14:54.900Z,8.80
2023-04-16T23:17:23.206Z,8.80
2023-04-16T23:19:51.550Z,8.80
2023-04-16T23:22:19.965Z,8.80
2023-04-16T23:24:49.624Z,8.80
2023-04-16T23:27:18.077Z,8.80
2023-04-16T23:29:46.451Z,8.80
2023-04-16T23:32:14.805Z,8.80
2023-04-16T23:34:43.135Z,8.80
2023-04-16T23:37:11.476Z,8.90
2023-04-16T23:39:39.959Z,8.90
2023-04-16T23:42:10.098Z,8.90
2023-04-16T23:44:38.548Z,8.90
2023-04-16T23:47:06.947Z,8.90
2023-04-16T23:49:35.540Z,8.90
2023-04-16T23:52:03.931Z,9.00
2023-04-16T23:54:32.355Z,9.00
2023-04-16T23:57:01.845Z,9.00
2023-04-16T23:59:31.488Z,8.90
